sensor_id;sensor_type;location;lat;lon;timestamp;P1;durP1;ratioP1;P2;durP2;ratioP2
55112;SDS011;41006;50.920;3.456;2023-03-12T00:00:04;13.15;;;12.02;;
55112;SDS011;41006;50.920;3.456;2023-03-12T00:00:38;14.88;;;13.52;;
55112;SDS011;41006;50.920;3.456;2023-03-12T00:01:16;14.52;;;13.30;;
55112;SDS011;41006;50.920;3.456;2023-03-12T00:01:46;13.73;;;12.45;;
55112;SDS011;41006;50.920;3.456;2023-03-12T00:02:16;13.77;;;12.70;;
55112;SDS011;41006;50.920;3.456;2023-03-12T00:02:47;16.38;;;13.65;;
55112;SDS011;41006;50.920;3.456;2023-03-12T00:03:17;15.35;;;13.82;;
55112;SDS011;41006;50.920;3.456;2023-03-12T00:03:48;15.32;;;14.00;;
55112;SDS011;41006;50.920;3.456;2023-03-12T00:04:20;14.27;;;13.27;;
55112;SDS011;41006;50.920;3.456;2023-03-12T00:04:54;14.43;;;13.32;;
55112;SDS011;41006;50.920;3.456;2023-03-12T00:05:26;15.40;;;14.13;;
55112;SDS011;41006;50.920;3.456;2023-03-12T00:05:57;15.02;;;13.80;;
55112;SDS011;41006;50.920;3.456;2023-03-12T00:06:27;15.32;;;14.23;;
55112;SDS011;41006;50.920;3.456;2023-03-12T00:06:57;18.00;;;16.23;;
55112;SDS011;41006;50.920;3.456;2023-03-12T00:07:27;15.68;;;14.30;;
55112;SDS011;41006;50.920;3.456;2023-03-12T00:08:02;15.23;;;14.00;;
55112;SDS011;41006;50.920;3.456;2023-03-12T00:08:32;15.35;;;14.10;;
55112;SDS011;41006;50.920;3.456;2023-03-12T00:09:03;15.82;;;14.38;;
55112;SDS011;41006;50.920;3.456;2023-03-12T00:09:34;16.02;;;14.77;;
55112;SDS011;41006;50.920;3.456;2023-03-12T00:10:05;19.17;;;15.45;;
55112;SDS011;41006;50.920;3.456;2023-03-12T00:10:37;16.67;;;15.23;;
55112;SDS011;41006;50.920;3.456;2023-03-12T00:11:12;15.95;;;14.95;;
55112;SDS011;41006;50.920;3.456;2023-03-12T00:11:45;16.20;;;15.00;;
55112;SDS011;41006;50.920;3.456;2023-03-12T00:12:16;16.92;;;15.63;;
55112;SDS011;41006;50.920;3.456;2023-03-12T00:12:49;16.50;;;15.07;;
55112;SDS011;41006;50.920;3.456;2023-03-12T00:13:19;16.20;;;14.55;;
55112;SDS011;41006;50.920;3.456;2023-03-12T00:13:50;16.17;;;14.88;;
55112;SDS011;41006;50.920;3.456;2023-03-12T00:14:23;17.33;;;15.65;;
55112;SDS011;41006;50.920;3.456;2023-03-12T00:14:53;18.52;;;16.60;;
55112;SDS011;41006;50.920;3.456;2023-03-12T00:15:24;17.08;;;15.70;;
55112;SDS011;41006;50.920;3.456;2023-03-12T00:16:01;16.35;;;15.18;;
55112;SDS011;41006;50.920;3.456;2023-03-12T00:16:32;17.92;;;15.82;;
55112;SDS011;41006;50.920;3.456;2023-03-12T00:17:04;17.17;;;15.65;;
55112;SDS011;41006;50.920;3.456;2023-03-12T00:17:35;17.15;;;15.60;;
55112;SDS011;41006;50.920;3.456;2023-03-12T00:18:07;17.77;;;15.95;;
55112;SDS011;41006;50.920;3.456;2023-03-12T00:18:38;17.73;;;16.02;;
55112;SDS011;41006;50.920;3.456;2023-03-12T00:19:08;16.73;;;15.18;;
55112;SDS011;41006;50.920;3.456;2023-03-12T00:19:39;16.48;;;15.23;;
55112;SDS011;41006;50.920;3.456;2023-03-12T00:20:10;18.73;;;15.07;;
55112;SDS011;41006;50.920;3.456;2023-03-12T00:20:41;16.40;;;15.05;;
55112;SDS011;41006;50.920;3.456;2023-03-12T00:21:11;16.80;;;15.30;;
55112;SDS011;41006;50.920;3.456;2023-03-12T00:21:44;16.48;;;14.98;;
55112;SDS011;41006;50.920;3.456;2023-03-12T00:22:16;23.60;;;13.77;;
55112;SDS011;41006;50.920;3.456;2023-03-12T00:22:49;15.57;;;13.68;;
55112;SDS011;41006;50.920;3.456;2023-03-12T00:23:22;14.73;;;13.88;;
55112;SDS011;41006;50.920;3.456;2023-03-12T00:23:55;15.55;;;13.93;;
55112;SDS011;41006;50.920;3.456;2023-03-12T00:24:25;16.00;;;14.60;;
55112;SDS011;41006;50.920;3.456;2023-03-12T00:24:56;16.45;;;15.25;;
55112;SDS011;41006;50.920;3.456;2023-03-12T00:25:31;15.25;;;14.25;;
55112;SDS011;41006;50.920;3.456;2023-03-12T00:26:08;15.20;;;14.02;;
55112;SDS011;41006;50.920;3.456;2023-03-12T00:26:38;15.43;;;14.32;;
55112;SDS011;41006;50.920;3.456;2023-03-12T00:27:09;16.73;;;15.02;;
55112;SDS011;41006;50.920;3.456;2023-03-12T00:27:39;16.77;;;15.07;;
55112;SDS011;41006;50.920;3.456;2023-03-12T00:28:09;16.50;;;15.02;;
55112;SDS011;41006;50.920;3.456;2023-03-12T00:28:42;16.13;;;14.98;;
55112;SDS011;41006;50.920;3.456;2023-03-12T00:29:13;17.13;;;15.63;;
55112;SDS011;41006;50.920;3.456;2023-03-12T00:29:43;18.20;;;15.07;;
55112;SDS011;41006;50.920;3.456;2023-03-12T00:30:13;16.80;;;15.00;;
55112;SDS011;41006;50.920;3.456;2023-03-12T00:30:46;15.32;;;14.13;;
55112;SDS011;41006;50.920;3.456;2023-03-12T00:31:25;16.30;;;14.70;;
55112;SDS011;41006;50.920;3.456;2023-03-12T00:31:58;16.08;;;14.68;;
55112;SDS011;41006;50.920;3.456;2023-03-12T00:32:31;16.00;;;14.63;;
55112;SDS011;41006;50.920;3.456;2023-03-12T00:33:01;14.82;;;13.70;;
55112;SDS011;41006;50.920;3.456;2023-03-12T00:33:31;16.05;;;14.73;;
55112;SDS011;41006;50.920;3.456;2023-03-12T00:34:02;15.55;;;14.23;;
55112;SDS011;41006;50.920;3.456;2023-03-12T00:34:32;15.10;;;13.80;;
55112;SDS011;41006;50.920;3.456;2023-03-12T00:35:02;16.45;;;15.07;;
55112;SDS011;41006;50.920;3.456;2023-03-12T00:35:36;17.98;;;16.52;;
55112;SDS011;41006;50.920;3.456;2023-03-12T00:36:07;15.50;;;14.45;;
55112;SDS011;41006;50.920;3.456;2023-03-12T00:36:41;16.85;;;15.30;;
55112;SDS011;41006;50.920;3.456;2023-03-12T00:37:12;19.33;;;16.20;;
55112;SDS011;41006;50.920;3.456;2023-03-12T00:37:44;16.38;;;15.20;;
55112;SDS011;41006;50.920;3.456;2023-03-12T00:38:17;16.17;;;14.98;;
55112;SDS011;41006;50.920;3.456;2023-03-12T00:38:47;17.15;;;15.85;;
55112;SDS011;41006;50.920;3.456;2023-03-12T00:39:17;17.60;;;15.60;;
55112;SDS011;41006;50.920;3.456;2023-03-12T00:39:50;16.20;;;14.77;;
55112;SDS011;41006;50.920;3.456;2023-03-12T00:40:21;15.40;;;14.23;;
55112;SDS011;41006;50.920;3.456;2023-03-12T00:40:53;16.52;;;15.23;;
55112;SDS011;41006;50.920;3.456;2023-03-12T00:41:24;17.55;;;15.88;;
55112;SDS011;41006;50.920;3.456;2023-03-12T00:41:55;17.30;;;15.88;;
55112;SDS011;41006;50.920;3.456;2023-03-12T00:42:27;16.42;;;15.10;;
55112;SDS011;41006;50.920;3.456;2023-03-12T00:42:57;17.23;;;15.90;;
55112;SDS011;41006;50.920;3.456;2023-03-12T00:43:28;17.38;;;15.55;;
55112;SDS011;41006;50.920;3.456;2023-03-12T00:44:00;16.48;;;15.10;;
55112;SDS011;41006;50.920;3.456;2023-03-12T00:44:30;16.90;;;15.50;;
55112;SDS011;41006;50.920;3.456;2023-03-12T00:45:01;15.70;;;14.55;;
55112;SDS011;41006;50.920;3.456;2023-03-12T00:45:31;17.88;;;16.42;;
55112;SDS011;41006;50.920;3.456;2023-03-12T00:46:01;16.17;;;15.00;;
55112;SDS011;41006;50.920;3.456;2023-03-12T00:46:31;17.40;;;15.60;;
55112;SDS011;41006;50.920;3.456;2023-03-12T00:47:02;16.50;;;15.13;;
55112;SDS011;41006;50.920;3.456;2023-03-12T00:47:32;17.33;;;15.60;;
55112;SDS011;41006;50.920;3.456;2023-03-12T00:48:07;17.17;;;15.48;;
55112;SDS011;41006;50.920;3.456;2023-03-12T00:48:37;16.63;;;15.02;;
55112;SDS011;41006;50.920;3.456;2023-03-12T00:49:08;17.48;;;16.20;;
55112;SDS011;41006;50.920;3.456;2023-03-12T00:49:39;17.65;;;16.00;;
55112;SDS011;41006;50.920;3.456;2023-03-12T00:50:11;15.35;;;14.30;;
55112;SDS011;41006;50.920;3.456;2023-03-12T00:50:41;16.48;;;14.88;;
55112;SDS011;41006;50.920;3.456;2023-03-12T00:51:12;17.40;;;15.75;;
55112;SDS011;41006;50.920;3.456;2023-03-12T00:51:42;15.90;;;14.82;;
55112;SDS011;41006;50.920;3.456;2023-03-12T00:52:15;17.08;;;15.70;;
55112;SDS011;41006;50.920;3.456;2023-03-12T00:52:47;16.63;;;14.88;;
55112;SDS011;41006;50.920;3.456;2023-03-12T00:53:17;15.13;;;13.98;;
55112;SDS011;41006;50.920;3.456;2023-03-12T00:53:48;16.08;;;14.35;;
55112;SDS011;41006;50.920;3.456;2023-03-12T00:54:21;15.20;;;13.93;;
55112;SDS011;41006;50.920;3.456;2023-03-12T00:54:52;16.83;;;15.10;;
55112;SDS011;41006;50.920;3.456;2023-03-12T00:55:22;15.82;;;14.35;;
55112;SDS011;41006;50.920;3.456;2023-03-12T00:55:52;15.70;;;14.43;;
55112;SDS011;41006;50.920;3.456;2023-03-12T00:56:22;15.73;;;14.30;;
55112;SDS011;41006;50.920;3.456;2023-03-12T00:56:55;15.48;;;13.95;;
55112;SDS011;41006;50.920;3.456;2023-03-12T00:57:28;13.73;;;12.55;;
55112;SDS011;41006;50.920;3.456;2023-03-12T00:57:58;14.07;;;13.00;;
55112;SDS011;41006;50.920;3.456;2023-03-12T00:58:31;18.65;;;14.40;;
55112;SDS011;41006;50.920;3.456;2023-03-12T00:59:01;14.98;;;13.60;;
55112;SDS011;41006;50.920;3.456;2023-03-12T00:59:31;15.27;;;13.68;;
55112;SDS011;41006;50.920;3.456;2023-03-12T01:00:02;14.95;;;13.38;;
55112;SDS011;41006;50.920;3.456;2023-03-12T01:00:34;14.63;;;13.32;;
55112;SDS011;41006;50.920;3.456;2023-03-12T01:01:07;14.38;;;12.90;;
55112;SDS011;41006;50.920;3.456;2023-03-12T01:01:37;13.27;;;12.15;;
55112;SDS011;41006;50.920;3.456;2023-03-12T01:02:07;13.90;;;12.63;;
55112;SDS011;41006;50.920;3.456;2023-03-12T01:02:40;13.13;;;11.98;;
55112;SDS011;41006;50.920;3.456;2023-03-12T01:03:12;13.43;;;12.35;;
55112;SDS011;41006;50.920;3.456;2023-03-12T01:03:43;14.15;;;12.98;;
55112;SDS011;41006;50.920;3.456;2023-03-12T01:04:13;17.20;;;13.23;;
55112;SDS011;41006;50.920;3.456;2023-03-12T01:04:46;14.45;;;12.57;;
55112;SDS011;41006;50.920;3.456;2023-03-12T01:05:16;13.32;;;12.30;;
55112;SDS011;41006;50.920;3.456;2023-03-12T01:05:49;13.95;;;12.55;;
55112;SDS011;41006;50.920;3.456;2023-03-12T01:06:23;13.70;;;12.50;;
55112;SDS011;41006;50.920;3.456;2023-03-12T01:06:54;13.23;;;12.23;;
55112;SDS011;41006;50.920;3.456;2023-03-12T01:07:24;13.48;;;12.43;;
55112;SDS011;41006;50.920;3.456;2023-03-12T01:07:54;14.55;;;12.95;;
55112;SDS011;41006;50.920;3.456;2023-03-12T01:08:24;14.27;;;12.82;;
55112;SDS011;41006;50.920;3.456;2023-03-12T01:08:57;15.18;;;13.85;;
55112;SDS011;41006;50.920;3.456;2023-03-12T01:09:27;13.70;;;12.50;;
55112;SDS011;41006;50.920;3.456;2023-03-12T01:09:58;14.95;;;13.32;;
55112;SDS011;41006;50.920;3.456;2023-03-12T01:10:28;15.60;;;14.05;;
55112;SDS011;41006;50.920;3.456;2023-03-12T01:11:01;14.73;;;13.43;;
55112;SDS011;41006;50.920;3.456;2023-03-12T01:11:31;14.65;;;13.27;;
55112;SDS011;41006;50.920;3.456;2023-03-12T01:12:02;14.82;;;13.48;;
55112;SDS011;41006;50.920;3.456;2023-03-12T01:12:33;15.38;;;13.80;;
55112;SDS011;41006;50.920;3.456;2023-03-12T01:13:03;15.38;;;14.27;;
55112;SDS011;41006;50.920;3.456;2023-03-12T01:13:33;14.50;;;13.20;;
55112;SDS011;41006;50.920;3.456;2023-03-12T01:14:04;14.68;;;13.50;;
55112;SDS011;41006;50.920;3.456;2023-03-12T01:14:37;14.02;;;12.93;;
55112;SDS011;41006;50.920;3.456;2023-03-12T01:15:10;15.77;;;14.23;;
55112;SDS011;41006;50.920;3.456;2023-03-12T01:15:44;16.17;;;13.45;;
55112;SDS011;41006;50.920;3.456;2023-03-12T01:16:19;14.27;;;13.07;;
55112;SDS011;41006;50.920;3.456;2023-03-12T01:16:59;15.32;;;14.00;;
55112;SDS011;41006;50.920;3.456;2023-03-12T01:17:30;15.25;;;13.75;;
55112;SDS011;41006;50.920;3.456;2023-03-12T01:18:00;16.30;;;14.48;;
55112;SDS011;41006;50.920;3.456;2023-03-12T01:18:30;17.70;;;13.95;;
55112;SDS011;41006;50.920;3.456;2023-03-12T01:19:01;15.52;;;14.30;;
55112;SDS011;41006;50.920;3.456;2023-03-12T01:19:34;16.02;;;13.60;;
55112;SDS011;41006;50.920;3.456;2023-03-12T01:20:08;15.02;;;13.85;;
55112;SDS011;41006;50.920;3.456;2023-03-12T01:20:41;14.68;;;13.45;;
55112;SDS011;41006;50.920;3.456;2023-03-12T01:21:11;15.52;;;14.02;;
55112;SDS011;41006;50.920;3.456;2023-03-12T01:21:41;15.55;;;14.35;;
55112;SDS011;41006;50.920;3.456;2023-03-12T01:22:12;18.20;;;14.85;;
55112;SDS011;41006;50.920;3.456;2023-03-12T01:22:48;16.40;;;14.65;;
55112;SDS011;41006;50.920;3.456;2023-03-12T01:23:20;15.60;;;14.10;;
55112;SDS011;41006;50.920;3.456;2023-03-12T01:23:53;14.80;;;13.50;;
55112;SDS011;41006;50.920;3.456;2023-03-12T01:24:23;17.58;;;14.43;;
55112;SDS011;41006;50.920;3.456;2023-03-12T01:24:54;16.00;;;14.63;;
55112;SDS011;41006;50.920;3.456;2023-03-12T01:25:26;14.60;;;13.38;;
55112;SDS011;41006;50.920;3.456;2023-03-12T01:25:57;17.30;;;14.07;;
55112;SDS011;41006;50.920;3.456;2023-03-12T01:26:29;13.68;;;12.52;;
55112;SDS011;41006;50.920;3.456;2023-03-12T01:27:00;15.20;;;13.70;;
55112;SDS011;41006;50.920;3.456;2023-03-12T01:27:32;14.30;;;13.20;;
55112;SDS011;41006;50.920;3.456;2023-03-12T01:28:05;19.02;;;14.70;;
55112;SDS011;41006;50.920;3.456;2023-03-12T01:28:37;15.25;;;13.95;;
55112;SDS011;41006;50.920;3.456;2023-03-12T01:29:08;15.95;;;14.18;;
55112;SDS011;41006;50.920;3.456;2023-03-12T01:29:38;16.17;;;14.27;;
55112;SDS011;41006;50.920;3.456;2023-03-12T01:30:09;16.60;;;15.25;;
55112;SDS011;41006;50.920;3.456;2023-03-12T01:30:39;17.30;;;15.40;;
55112;SDS011;41006;50.920;3.456;2023-03-12T01:31:10;15.25;;;13.98;;
55112;SDS011;41006;50.920;3.456;2023-03-12T01:31:43;15.20;;;13.98;;
55112;SDS011;41006;50.920;3.456;2023-03-12T01:32:13;15.18;;;13.70;;
55112;SDS011;41006;50.920;3.456;2023-03-12T01:32:43;16.13;;;14.60;;
55112;SDS011;41006;50.920;3.456;2023-03-12T01:33:16;16.02;;;14.13;;
55112;SDS011;41006;50.920;3.456;2023-03-12T01:33:50;15.95;;;14.20;;
55112;SDS011;41006;50.920;3.456;2023-03-12T01:34:20;16.08;;;14.57;;
55112;SDS011;41006;50.920;3.456;2023-03-12T01:34:50;16.98;;;14.20;;
55112;SDS011;41006;50.920;3.456;2023-03-12T01:35:23;15.45;;;13.88;;
55112;SDS011;41006;50.920;3.456;2023-03-12T01:35:53;16.98;;;15.30;;
55112;SDS011;41006;50.920;3.456;2023-03-12T01:36:27;21.67;;;15.20;;
55112;SDS011;41006;50.920;3.456;2023-03-12T01:36:58;15.90;;;14.43;;
55112;SDS011;41006;50.920;3.456;2023-03-12T01:37:28;19.10;;;14.00;;
55112;SDS011;41006;50.920;3.456;2023-03-12T01:37:58;16.70;;;15.02;;
55112;SDS011;41006;50.920;3.456;2023-03-12T01:38:29;16.30;;;14.95;;
55112;SDS011;41006;50.920;3.456;2023-03-12T01:38:59;15.50;;;14.25;;
55112;SDS011;41006;50.920;3.456;2023-03-12T01:39:29;16.52;;;14.95;;
55112;SDS011;41006;50.920;3.456;2023-03-12T01:40:00;18.33;;;14.27;;
55112;SDS011;41006;50.920;3.456;2023-03-12T01:40:32;15.75;;;13.95;;
55112;SDS011;41006;50.920;3.456;2023-03-12T01:41:05;21.08;;;14.85;;
55112;SDS011;41006;50.920;3.456;2023-03-12T01:41:35;16.88;;;15.38;;
55112;SDS011;41006;50.920;3.456;2023-03-12T01:42:08;15.82;;;14.43;;
55112;SDS011;41006;50.920;3.456;2023-03-12T01:42:38;17.05;;;15.35;;
55112;SDS011;41006;50.920;3.456;2023-03-12T01:43:31;16.38;;;14.88;;
55112;SDS011;41006;50.920;3.456;2023-03-12T01:43:59;15.27;;;13.93;;
55112;SDS011;41006;50.920;3.456;2023-03-12T01:44:48;16.27;;;14.80;;
55112;SDS011;41006;50.920;3.456;2023-03-12T01:46:52;16.63;;;15.18;;
55112;SDS011;41006;50.920;3.456;2023-03-12T01:47:22;15.93;;;14.68;;
55112;SDS011;41006;50.920;3.456;2023-03-12T01:47:55;16.27;;;14.88;;
55112;SDS011;41006;50.920;3.456;2023-03-12T01:48:29;16.45;;;14.93;;
55112;SDS011;41006;50.920;3.456;2023-03-12T01:49:37;15.88;;;14.25;;
55112;SDS011;41006;50.920;3.456;2023-03-12T01:50:07;18.95;;;14.23;;
55112;SDS011;41006;50.920;3.456;2023-03-12T01:50:38;17.40;;;14.50;;
55112;SDS011;41006;50.920;3.456;2023-03-12T01:51:08;14.63;;;13.35;;
55112;SDS011;41006;50.920;3.456;2023-03-12T01:51:53;15.88;;;14.35;;
55112;SDS011;41006;50.920;3.456;2023-03-12T01:52:26;15.18;;;13.90;;
55112;SDS011;41006;50.920;3.456;2023-03-12T01:52:58;15.43;;;13.88;;
55112;SDS011;41006;50.920;3.456;2023-03-12T01:53:33;15.82;;;14.40;;
55112;SDS011;41006;50.920;3.456;2023-03-12T01:54:10;15.23;;;14.00;;
55112;SDS011;41006;50.920;3.456;2023-03-12T01:55:20;14.65;;;13.40;;
55112;SDS011;41006;50.920;3.456;2023-03-12T01:55:53;14.52;;;13.07;;
55112;SDS011;41006;50.920;3.456;2023-03-12T01:56:24;16.77;;;15.18;;
55112;SDS011;41006;50.920;3.456;2023-03-12T01:56:55;13.50;;;12.40;;
55112;SDS011;41006;50.920;3.456;2023-03-12T01:57:58;14.02;;;12.57;;
55112;SDS011;41006;50.920;3.456;2023-03-12T01:58:33;16.10;;;14.43;;
55112;SDS011;41006;50.920;3.456;2023-03-12T01:59:07;14.93;;;12.95;;
55112;SDS011;41006;50.920;3.456;2023-03-12T01:59:43;13.80;;;12.55;;
55112;SDS011;41006;50.920;3.456;2023-03-12T02:00:18;15.00;;;13.77;;
55112;SDS011;41006;50.920;3.456;2023-03-12T02:00:49;14.30;;;13.00;;
55112;SDS011;41006;50.920;3.456;2023-03-12T02:01:19;14.82;;;13.45;;
55112;SDS011;41006;50.920;3.456;2023-03-12T02:01:50;14.40;;;12.88;;
55112;SDS011;41006;50.920;3.456;2023-03-12T02:02:21;14.80;;;13.38;;
55112;SDS011;41006;50.920;3.456;2023-03-12T02:02:57;14.80;;;13.60;;
55112;SDS011;41006;50.920;3.456;2023-03-12T02:03:29;15.27;;;13.88;;
55112;SDS011;41006;50.920;3.456;2023-03-12T02:04:02;15.88;;;12.73;;
55112;SDS011;41006;50.920;3.456;2023-03-12T02:04:32;14.55;;;13.15;;
55112;SDS011;41006;50.920;3.456;2023-03-12T02:05:10;14.00;;;12.57;;
55112;SDS011;41006;50.920;3.456;2023-03-12T02:05:52;17.45;;;13.68;;
55112;SDS011;41006;50.920;3.456;2023-03-12T02:06:25;14.25;;;12.85;;
55112;SDS011;41006;50.920;3.456;2023-03-12T02:07:36;13.52;;;12.45;;
55112;SDS011;41006;50.920;3.456;2023-03-12T02:08:06;13.52;;;12.38;;
55112;SDS011;41006;50.920;3.456;2023-03-12T02:08:37;15.02;;;13.48;;
55112;SDS011;41006;50.920;3.456;2023-03-12T02:09:09;14.57;;;13.48;;
55112;SDS011;41006;50.920;3.456;2023-03-12T02:09:45;16.33;;;13.95;;
55112;SDS011;41006;50.920;3.456;2023-03-12T02:10:22;18.45;;;14.13;;
55112;SDS011;41006;50.920;3.456;2023-03-12T02:10:52;18.40;;;14.25;;
55112;SDS011;41006;50.920;3.456;2023-03-12T02:11:22;16.33;;;14.80;;
55112;SDS011;41006;50.920;3.456;2023-03-12T02:11:53;14.57;;;13.57;;
55112;SDS011;41006;50.920;3.456;2023-03-12T02:12:25;16.02;;;14.45;;
55112;SDS011;41006;50.920;3.456;2023-03-12T02:12:56;16.77;;;14.90;;
55112;SDS011;41006;50.920;3.456;2023-03-12T02:13:26;15.70;;;14.25;;
55112;SDS011;41006;50.920;3.456;2023-03-12T02:13:59;15.50;;;14.02;;
55112;SDS011;41006;50.920;3.456;2023-03-12T02:14:29;16.02;;;14.63;;
55112;SDS011;41006;50.920;3.456;2023-03-12T02:15:00;24.88;;;15.93;;
55112;SDS011;41006;50.920;3.456;2023-03-12T02:15:31;16.02;;;14.52;;
55112;SDS011;41006;50.920;3.456;2023-03-12T02:16:02;15.50;;;13.95;;
55112;SDS011;41006;50.920;3.456;2023-03-12T02:16:34;15.55;;;14.38;;
55112;SDS011;41006;50.920;3.456;2023-03-12T02:17:07;15.52;;;14.10;;
55112;SDS011;41006;50.920;3.456;2023-03-12T02:17:39;16.00;;;14.38;;
55112;SDS011;41006;50.920;3.456;2023-03-12T02:18:10;17.13;;;15.75;;
55112;SDS011;41006;50.920;3.456;2023-03-12T02:18:44;17.13;;;15.70;;
55112;SDS011;41006;50.920;3.456;2023-03-12T02:20:08;16.90;;;15.10;;
55112;SDS011;41006;50.920;3.456;2023-03-12T02:21:23;16.00;;;14.43;;
55112;SDS011;41006;50.920;3.456;2023-03-12T02:21:53;15.70;;;14.40;;
55112;SDS011;41006;50.920;3.456;2023-03-12T02:22:28;14.77;;;13.27;;
55112;SDS011;41006;50.920;3.456;2023-03-12T02:23:02;16.25;;;14.90;;
55112;SDS011;41006;50.920;3.456;2023-03-12T02:23:37;15.55;;;14.07;;
55112;SDS011;41006;50.920;3.456;2023-03-12T02:25:12;15.57;;;13.93;;
55112;SDS011;41006;50.920;3.456;2023-03-12T02:25:49;16.75;;;15.23;;
55112;SDS011;41006;50.920;3.456;2023-03-12T02:26:20;15.93;;;14.50;;
55112;SDS011;41006;50.920;3.456;2023-03-12T02:26:51;15.68;;;14.20;;
55112;SDS011;41006;50.920;3.456;2023-03-12T02:27:21;16.92;;;15.43;;
55112;SDS011;41006;50.920;3.456;2023-03-12T02:27:56;15.30;;;13.90;;
55112;SDS011;41006;50.920;3.456;2023-03-12T02:28:27;14.60;;;13.35;;
55112;SDS011;41006;50.920;3.456;2023-03-12T02:29:00;14.90;;;13.68;;
55112;SDS011;41006;50.920;3.456;2023-03-12T02:29:31;15.38;;;13.85;;
55112;SDS011;41006;50.920;3.456;2023-03-12T02:30:04;15.90;;;13.57;;
55112;SDS011;41006;50.920;3.456;2023-03-12T02:30:35;14.75;;;13.35;;
55112;SDS011;41006;50.920;3.456;2023-03-12T02:31:10;15.50;;;13.88;;
55112;SDS011;41006;50.920;3.456;2023-03-12T02:31:43;15.05;;;13.45;;
55112;SDS011;41006;50.920;3.456;2023-03-12T02:32:17;16.75;;;15.05;;
55112;SDS011;41006;50.920;3.456;2023-03-12T02:32:49;15.60;;;14.40;;
55112;SDS011;41006;50.920;3.456;2023-03-12T02:33:21;16.30;;;14.68;;
55112;SDS011;41006;50.920;3.456;2023-03-12T02:33:55;14.95;;;13.57;;
55112;SDS011;41006;50.920;3.456;2023-03-12T02:34:25;20.15;;;14.27;;
55112;SDS011;41006;50.920;3.456;2023-03-12T02:34:56;15.02;;;13.50;;
55112;SDS011;41006;50.920;3.456;2023-03-12T02:35:28;14.80;;;13.50;;
55112;SDS011;41006;50.920;3.456;2023-03-12T02:36:03;16.63;;;12.95;;
55112;SDS011;41006;50.920;3.456;2023-03-12T02:36:34;15.70;;;14.30;;
55112;SDS011;41006;50.920;3.456;2023-03-12T02:37:04;15.88;;;14.15;;
55112;SDS011;41006;50.920;3.456;2023-03-12T02:37:34;15.00;;;13.07;;
55112;SDS011;41006;50.920;3.456;2023-03-12T02:38:24;18.48;;;14.15;;
55112;SDS011;41006;50.920;3.456;2023-03-12T02:39:25;15.57;;;14.23;;
55112;SDS011;41006;50.920;3.456;2023-03-12T02:39:59;15.48;;;12.98;;
55112;SDS011;41006;50.920;3.456;2023-03-12T02:40:38;15.60;;;14.07;;
55112;SDS011;41006;50.920;3.456;2023-03-12T02:41:47;16.63;;;14.98;;
55112;SDS011;41006;50.920;3.456;2023-03-12T02:42:19;16.60;;;15.02;;
55112;SDS011;41006;50.920;3.456;2023-03-12T02:42:51;15.85;;;14.20;;
55112;SDS011;41006;50.920;3.456;2023-03-12T02:43:21;17.27;;;15.35;;
55112;SDS011;41006;50.920;3.456;2023-03-12T02:44:00;16.95;;;15.07;;
55112;SDS011;41006;50.920;3.456;2023-03-12T02:44:32;16.67;;;15.13;;
55112;SDS011;41006;50.920;3.456;2023-03-12T02:45:02;23.75;;;15.05;;
55112;SDS011;41006;50.920;3.456;2023-03-12T02:45:36;17.13;;;15.38;;
55112;SDS011;41006;50.920;3.456;2023-03-12T02:46:07;18.42;;;15.57;;
55112;SDS011;41006;50.920;3.456;2023-03-12T02:46:48;20.77;;;15.07;;
55112;SDS011;41006;50.920;3.456;2023-03-12T02:47:21;15.82;;;14.15;;
55112;SDS011;41006;50.920;3.456;2023-03-12T02:47:54;17.27;;;13.70;;
55112;SDS011;41006;50.920;3.456;2023-03-12T02:48:26;16.42;;;14.30;;
55112;SDS011;41006;50.920;3.456;2023-03-12T02:49:02;17.95;;;16.23;;
55112;SDS011;41006;50.920;3.456;2023-03-12T02:49:33;21.35;;;15.30;;
55112;SDS011;41006;50.920;3.456;2023-03-12T02:50:03;18.00;;;13.88;;
55112;SDS011;41006;50.920;3.456;2023-03-12T02:50:37;17.13;;;15.32;;
55112;SDS011;41006;50.920;3.456;2023-03-12T02:51:07;17.40;;;14.45;;
55112;SDS011;41006;50.920;3.456;2023-03-12T02:51:38;19.70;;;14.88;;
55112;SDS011;41006;50.920;3.456;2023-03-12T02:52:09;18.58;;;14.40;;
55112;SDS011;41006;50.920;3.456;2023-03-12T02:52:39;21.00;;;14.32;;
55112;SDS011;41006;50.920;3.456;2023-03-12T02:53:10;19.70;;;15.55;;
55112;SDS011;41006;50.920;3.456;2023-03-12T02:53:40;16.67;;;15.13;;
55112;SDS011;41006;50.920;3.456;2023-03-12T02:54:10;18.30;;;13.85;;
55112;SDS011;41006;50.920;3.456;2023-03-12T02:54:41;16.85;;;15.05;;
55112;SDS011;41006;50.920;3.456;2023-03-12T02:55:14;16.83;;;15.23;;
55112;SDS011;41006;50.920;3.456;2023-03-12T02:55:44;16.50;;;15.10;;
55112;SDS011;41006;50.920;3.456;2023-03-12T02:56:19;21.05;;;16.20;;
55112;SDS011;41006;50.920;3.456;2023-03-12T02:56:49;22.08;;;16.60;;
55112;SDS011;41006;50.920;3.456;2023-03-12T02:57:19;17.70;;;16.05;;
55112;SDS011;41006;50.920;3.456;2023-03-12T02:57:50;17.30;;;15.45;;
55112;SDS011;41006;50.920;3.456;2023-03-12T02:58:20;18.83;;;16.90;;
55112;SDS011;41006;50.920;3.456;2023-03-12T02:58:50;18.17;;;16.33;;
55112;SDS011;41006;50.920;3.456;2023-03-12T02:59:23;18.98;;;17.08;;
55112;SDS011;41006;50.920;3.456;2023-03-12T02:59:59;19.45;;;16.33;;
55112;SDS011;41006;50.920;3.456;2023-03-12T03:00:32;19.80;;;17.42;;
55112;SDS011;41006;50.920;3.456;2023-03-12T03:01:03;18.75;;;16.80;;
55112;SDS011;41006;50.920;3.456;2023-03-12T03:01:33;18.02;;;16.10;;
55112;SDS011;41006;50.920;3.456;2023-03-12T03:02:05;20.65;;;15.77;;
55112;SDS011;41006;50.920;3.456;2023-03-12T03:02:36;24.75;;;16.23;;
55112;SDS011;41006;50.920;3.456;2023-03-12T03:03:06;21.83;;;17.33;;
55112;SDS011;41006;50.920;3.456;2023-03-12T03:03:36;18.92;;;17.00;;
55112;SDS011;41006;50.920;3.456;2023-03-12T03:04:07;24.70;;;18.33;;
55112;SDS011;41006;50.920;3.456;2023-03-12T03:04:40;22.25;;;17.42;;
55112;SDS011;41006;50.920;3.456;2023-03-12T03:05:10;18.75;;;16.73;;
55112;SDS011;41006;50.920;3.456;2023-03-12T03:05:41;19.65;;;16.52;;
55112;SDS011;41006;50.920;3.456;2023-03-12T03:06:11;20.27;;;16.63;;
55112;SDS011;41006;50.920;3.456;2023-03-12T03:06:44;18.42;;;16.05;;
55112;SDS011;41006;50.920;3.456;2023-03-12T03:07:16;22.35;;;17.60;;
55112;SDS011;41006;50.920;3.456;2023-03-12T03:07:49;21.48;;;17.42;;
55112;SDS011;41006;50.920;3.456;2023-03-12T03:08:21;22.60;;;16.65;;
55112;SDS011;41006;50.920;3.456;2023-03-12T03:08:54;21.55;;;17.92;;
55112;SDS011;41006;50.920;3.456;2023-03-12T03:09:24;20.60;;;16.88;;
55112;SDS011;41006;50.920;3.456;2023-03-12T03:09:58;23.35;;;17.45;;
55112;SDS011;41006;50.920;3.456;2023-03-12T03:10:33;22.65;;;17.30;;
55112;SDS011;41006;50.920;3.456;2023-03-12T03:11:03;18.05;;;16.35;;
55112;SDS011;41006;50.920;3.456;2023-03-12T03:11:34;22.35;;;17.30;;
55112;SDS011;41006;50.920;3.456;2023-03-12T03:12:04;23.38;;;17.27;;
55112;SDS011;41006;50.920;3.456;2023-03-12T03:12:34;20.83;;;17.38;;
55112;SDS011;41006;50.920;3.456;2023-03-12T03:13:06;18.98;;;17.15;;
55112;SDS011;41006;50.920;3.456;2023-03-12T03:13:37;20.15;;;18.15;;
55112;SDS011;41006;50.920;3.456;2023-03-12T03:14:09;20.52;;;18.52;;
55112;SDS011;41006;50.920;3.456;2023-03-12T03:14:42;20.25;;;18.33;;